Time;durP1;ratioP1;P1;durP2;ratioP2;P2;SDS_P1;SDS_P2;PMS_P1;PMS_P2;Temp;Humidity;BMP_temperature;BMP_pressure;BME280_temperature;BME280_humidity;BME280_pressure;Samples;Min_cycle;Max_cycle;Signal;HPM_P1;HPM_P2
2022/06/12 00:02:16;0.00;0.00;0.62;0.00;0.00;0.62;2.70;2.07;;;28.20;28.50;;;;;;2256416;61;20420;-55
2022/06/12 00:05:02;0.00;0.00;0.62;0.00;0.00;0.62;4.77;2.07;;;28.20;28.50;;;;;;2255648;61;20877;-56
2022/06/12 00:07:47;0.00;0.00;0.62;0.00;0.00;0.62;2.90;2.13;;;28.20;28.50;;;;;;2256479;61;20398;-56
2022/06/12 00:10:32;0.00;0.00;0.62;0.00;0.00;0.62;3.20;2.20;;;28.30;28.50;;;;;;2256248;61;20385;-57
2022/06/12 00:13:22;0.00;0.00;0.62;0.00;0.00;0.62;4.70;1.90;;;28.30;29.10;;;;;;2255406;61;20781;-57
2022/06/12 00:16:11;0.00;0.00;0.62;0.00;0.00;0.62;3.73;1.90;;;28.30;28.50;;;;;;2256327;61;20393;-54
2022/06/12 00:18:56;0.00;0.00;0.62;0.00;0.00;0.62;2.93;1.80;;;28.30;28.50;;;;;;2255617;61;20429;-58
2022/06/12 00:21:43;0.00;0.00;0.62;0.00;0.00;0.62;3.83;2.10;;;28.40;28.50;;;;;;2255902;61;20365;-52
2022/06/12 00:24:28;0.00;0.00;0.62;0.00;0.00;0.62;3.10;1.83;;;28.40;28.50;;;;;;2256221;61;20512;-58
2022/06/12 00:27:14;0.00;0.00;0.62;0.00;0.00;0.62;4.10;2.30;;;28.40;28.50;;;;;;2255666;61;20390;-54
2022/06/12 00:29:59;0.00;0.00;0.62;0.00;0.00;0.62;3.10;2.07;;;28.40;28.50;;;;;;2253071;61;20389;-60
2022/06/12 00:32:49;0.00;0.00;0.62;0.00;0.00;0.62;6.13;2.87;;;28.50;28.60;;;;;;2631043;45;20372;-58
2022/06/12 00:35:35;0.00;0.00;0.62;0.00;0.00;0.62;3.47;2.67;;;28.40;28.50;;;;;;2259426;61;20391;-59
2022/06/12 00:38:20;0.00;0.00;0.62;0.00;0.00;0.62;3.20;2.63;;;28.40;28.50;;;;;;2260153;61;20445;-60
2022/06/12 00:41:05;0.00;0.00;0.62;0.00;0.00;0.62;3.50;2.60;;;28.40;28.50;;;;;;2259466;61;20364;-59
2022/06/12 00:43:50;0.00;0.00;0.62;0.00;0.00;0.62;2.93;2.17;;;28.50;28.60;;;;;;2260063;61;20818;-58
2022/06/12 00:46:42;0.00;0.00;0.62;0.00;0.00;0.62;2.70;1.80;;;28.50;28.60;;;;;;2260380;61;20385;-61
2022/06/12 00:49:33;0.00;0.00;0.62;0.00;0.00;0.62;3.47;2.23;;;28.50;28.60;;;;;;2259642;61;20802;-59
2022/06/12 00:52:24;0.00;0.00;0.62;0.00;0.00;0.62;3.70;2.47;;;28.50;28.60;;;;;;2260787;61;20814;-61
2022/06/12 00:55:24;0.00;0.00;0.62;0.00;0.00;0.62;2.80;2.07;;;28.50;28.60;;;;;;2259218;61;20388;-59
2022/06/12 00:58:15;0.00;0.00;0.62;0.00;0.00;0.62;2.87;2.07;;;28.50;28.60;;;;;;2259854;61;20479;-60
2022/06/12 01:01:02;0.00;0.00;0.62;0.00;0.00;0.62;2.80;1.87;;;28.50;28.60;;;;;;2257102;61;20412;-59
2022/06/12 01:06:55;0.00;0.00;0.62;0.00;0.00;0.62;3.13;2.50;;;28.60;28.60;;;;;;2260164;61;20388;-59
2022/06/12 01:09:46;0.00;0.00;0.62;0.00;0.00;0.62;3.10;2.17;;;28.60;28.60;;;;;;2259707;61;20384;-65
2022/06/12 01:12:36;0.00;0.00;0.62;0.00;0.00;0.62;4.13;2.33;;;28.60;28.50;;;;;;2259516;61;20377;-59
2022/06/12 01:15:27;0.00;0.00;0.62;0.00;0.00;0.62;2.73;2.00;;;28.60;28.50;;;;;;2260064;61;20365;-61
2022/06/12 01:18:16;0.00;0.00;0.62;0.00;0.00;0.62;3.53;2.40;;;28.60;28.70;;;;;;2259211;61;20939;-60
2022/06/12 01:21:21;0.00;0.00;0.62;0.00;0.00;0.62;4.33;2.63;;;28.60;28.40;;;;;;2259748;61;20794;-63
2022/06/12 01:24:37;0.00;0.00;0.62;0.00;0.00;0.62;5.37;3.10;;;28.70;28.40;;;;;;2259644;61;20915;-60
2022/06/12 01:28:12;0.00;0.00;0.62;0.00;0.00;0.62;6.00;3.00;;;28.60;28.20;;;;;;2259467;61;20794;-62
2022/06/12 01:31:07;0.00;0.00;0.62;0.00;0.00;0.62;4.73;2.50;;;28.60;28.20;;;;;;2260117;61;20779;-62
2022/06/12 01:34:15;0.00;0.00;0.62;0.00;0.00;0.62;6.50;2.90;;;28.60;28.20;;;;;;2259421;61;20457;-58
2022/06/12 01:37:22;0.00;0.00;0.62;0.00;0.00;0.62;3.43;2.43;;;28.60;28.20;;;;;;2257254;61;20403;-61
2022/06/12 01:40:19;0.00;0.00;0.62;0.00;0.00;0.62;4.47;2.10;;;28.60;28.20;;;;;;2260240;61;20480;-62
2022/06/12 01:43:14;0.00;0.00;0.62;0.00;0.00;0.62;3.10;2.50;;;28.60;28.20;;;;;;2261092;61;21114;-62
2022/06/12 01:46:08;0.00;0.00;0.62;0.00;0.00;0.62;6.33;2.90;;;28.60;28.20;;;;;;2260608;61;20357;-63
2022/06/12 01:49:06;0.00;0.00;0.62;0.00;0.00;0.62;4.47;2.40;;;28.60;28.20;;;;;;2259963;61;20443;-60
2022/06/12 01:51:58;0.00;0.00;0.62;0.00;0.00;0.62;4.13;2.37;;;28.60;28.20;;;;;;2260886;61;20429;-58
2022/06/12 01:54:52;0.00;0.00;0.62;0.00;0.00;0.62;4.63;2.40;;;28.60;28.10;;;;;;2260104;61;20427;-62
2022/06/12 01:57:46;0.00;0.00;0.62;0.00;0.00;0.62;4.43;2.63;;;28.60;28.10;;;;;;2261298;61;20405;-61
2022/06/12 02:00:31;0.00;0.00;0.62;0.00;0.00;0.62;3.60;2.17;;;28.60;28.10;;;;;;2260794;61;20392;-62
2022/06/12 02:03:28;0.00;0.00;0.62;0.00;0.00;0.62;3.60;2.20;;;28.60;28.10;;;;;;2260398;61;20916;-59
2022/06/12 02:06:19;0.00;0.00;0.62;0.00;0.00;0.62;3.60;2.77;;;28.60;28.10;;;;;;2260373;61;20383;-62
2022/06/12 02:09:13;0.00;0.00;0.62;0.00;0.00;0.62;5.40;3.40;;;28.60;28.00;;;;;;2256418;61;20797;-62
2022/06/12 02:15:18;0.00;0.00;0.62;0.00;0.00;0.62;4.80;2.93;;;28.50;27.90;;;;;;2256961;61;20446;-57
2022/06/12 02:18:07;0.00;0.00;0.62;0.00;0.00;0.62;5.80;2.80;;;28.50;28.00;;;;;;2259030;61;20353;-57
2022/06/12 02:21:03;0.00;0.00;0.62;0.00;0.00;0.62;6.93;2.83;;;28.50;28.00;;;;;;2260237;61;20453;-60
2022/06/12 02:23:54;0.00;0.00;0.62;0.00;0.00;0.62;5.37;2.60;;;28.50;28.00;;;;;;2259474;61;20783;-59
2022/06/12 02:26:44;0.00;0.00;0.62;0.00;0.00;0.62;5.20;2.13;;;28.50;28.00;;;;;;2259709;61;20522;-60
2022/06/12 02:29:35;0.00;0.00;0.62;0.00;0.00;0.62;4.77;2.40;;;28.50;28.00;;;;;;2260618;61;20393;-60
2022/06/12 02:32:27;0.00;0.00;0.62;0.00;0.00;0.62;4.23;2.30;;;28.40;28.00;;;;;;2256331;61;20810;-63
2022/06/12 02:35:17;0.00;0.00;0.62;0.00;0.00;0.62;6.33;2.87;;;28.40;28.00;;;;;;2260224;61;20356;-61
2022/06/12 02:38:11;0.00;0.00;0.62;0.00;0.00;0.62;4.90;2.43;;;28.40;27.90;;;;;;2260366;61;20526;-57
2022/06/12 02:41:09;0.00;0.00;0.62;0.00;0.00;0.62;3.03;2.30;;;28.40;28.00;;;;;;2259664;61;20408;-58
2022/06/12 02:44:01;0.00;0.00;0.62;0.00;0.00;0.62;5.60;2.53;;;28.40;28.00;;;;;;2260450;61;20445;-59
2022/06/12 02:46:52;0.00;0.00;0.62;0.00;0.00;0.62;5.60;2.70;;;28.40;28.00;;;;;;2259884;61;20408;-57
2022/06/12 02:49:39;0.00;0.00;0.62;0.00;0.00;0.62;7.43;3.10;;;28.30;28.00;;;;;;2260519;61;20427;-63
2022/06/12 02:52:37;0.00;0.00;0.62;0.00;0.00;0.62;6.20;2.80;;;28.30;27.90;;;;;;2257455;61;20361;-61
2022/06/12 02:55:31;0.00;0.00;0.62;0.00;0.00;0.62;4.27;2.50;;;28.20;27.90;;;;;;2259757;61;20404;-61
2022/06/12 02:58:20;0.00;0.00;0.62;0.00;0.00;0.62;4.47;2.63;;;28.20;28.00;;;;;;2260443;61;20883;-64
2022/06/12 03:01:10;0.00;0.00;0.62;0.00;0.00;0.62;5.53;2.60;;;28.20;28.10;;;;;;2260119;61;20416;-58
2022/06/12 03:04:04;0.00;0.00;0.62;0.00;0.00;0.62;8.17;2.47;;;28.20;28.10;;;;;;2259863;61;20357;-57
2022/06/12 03:06:49;0.00;0.00;0.62;0.00;0.00;0.62;4.40;2.50;;;28.10;28.10;;;;;;2260788;61;20436;-58
2022/06/12 03:09:35;0.00;0.00;0.62;0.00;0.00;0.62;7.33;2.80;;;28.10;28.10;;;;;;2260421;61;20490;-59
2022/06/12 03:12:21;0.00;0.00;0.62;0.00;0.00;0.62;7.37;2.90;;;28.10;28.10;;;;;;2262049;61;20419;-57
2022/06/12 03:15:27;0.00;0.00;0.62;0.00;0.00;0.62;5.70;3.20;;;28.10;28.20;;;;;;2260964;61;20942;-59
2022/06/12 03:18:16;0.00;0.00;0.62;0.00;0.00;0.62;5.90;3.10;;;28.10;28.10;;;;;;2261349;61;20365;-61
2022/06/12 03:21:10;0.00;0.00;0.62;0.00;0.00;0.62;6.20;2.90;;;28.10;28.20;;;;;;2262188;61;20832;-59
2022/06/12 03:24:18;0.00;0.00;0.62;0.00;0.00;0.62;5.50;3.80;;;28.00;28.30;;;;;;2261204;61;20415;-65
2022/06/12 03:27:25;0.00;0.00;0.62;0.00;0.00;0.62;4.43;2.87;;;28.00;28.20;;;;;;2257865;61;20403;-59
2022/06/12 03:30:18;0.00;0.00;0.62;0.00;0.00;0.62;6.60;3.80;;;28.00;28.30;;;;;;2261032;61;20393;-59
2022/06/12 03:33:12;0.00;0.00;0.62;0.00;0.00;0.62;6.10;3.50;;;28.00;28.30;;;;;;2260934;61;20435;-61
2022/06/12 03:36:03;0.00;0.00;0.62;0.00;0.00;0.62;5.60;2.97;;;27.90;28.20;;;;;;2258487;61;20368;-60
2022/06/12 03:38:57;0.00;0.00;0.62;0.00;0.00;0.62;5.40;2.83;;;27.90;28.20;;;;;;2260321;61;20377;-62
2022/06/12 03:41:51;0.00;0.00;0.62;0.00;0.00;0.62;5.53;3.13;;;27.90;28.20;;;;;;2260780;61;20465;-61
2022/06/12 03:44:48;0.00;0.00;0.62;0.00;0.00;0.62;5.60;3.17;;;27.90;28.20;;;;;;2260365;61;20357;-60
2022/06/12 03:47:39;0.00;0.00;0.62;0.00;0.00;0.62;5.00;2.93;;;27.80;28.20;;;;;;2257475;61;21449;-61
2022/06/12 03:50:34;0.00;0.00;0.62;0.00;0.00;0.62;4.20;3.33;;;27.80;28.30;;;;;;2261087;61;20384;-59
2022/06/12 03:53:27;0.00;0.00;0.62;0.00;0.00;0.62;4.77;2.90;;;27.80;28.30;;;;;;2260090;61;20456;-61
2022/06/12 03:59:28;0.00;0.00;0.62;0.00;0.00;0.62;3.37;2.63;;;27.80;28.30;;;;;;2260084;61;20415;-59
2022/06/12 04:02:21;0.00;0.00;0.62;0.00;0.00;0.62;9.63;3.20;;;27.80;28.40;;;;;;2259284;61;20401;-58
2022/06/12 04:05:09;0.00;0.00;0.62;0.00;0.00;0.62;5.20;2.83;;;27.80;28.40;;;;;;2260148;61;20404;-61
2022/06/12 04:07:58;0.00;0.00;0.62;0.00;0.00;0.62;5.53;2.87;;;27.80;28.30;;;;;;2256342;61;20845;-59
2022/06/12 04:10:44;0.00;0.00;0.62;0.00;0.00;0.62;4.70;2.67;;;27.70;28.20;;;;;;2259676;61;20881;-61
2022/06/12 04:13:29;0.00;0.00;0.62;0.00;0.00;0.62;7.73;3.17;;;27.70;28.30;;;;;;2260431;61;20385;-59
2022/06/12 04:16:27;0.00;0.00;0.62;0.00;0.00;0.62;5.07;3.13;;;27.70;28.20;;;;;;2258947;61;20912;-60
2022/06/12 04:19:17;0.00;0.00;0.62;0.00;0.00;0.62;4.23;2.33;;;27.60;28.30;;;;;;2260029;61;20428;-61
2022/06/12 04:22:12;0.00;0.00;0.62;0.00;0.00;0.62;4.53;2.90;;;27.60;28.30;;;;;;2260225;61;20393;-57
2022/06/12 04:25:05;0.00;0.00;0.62;0.00;0.00;0.62;8.00;3.20;;;27.50;28.30;;;;;;2259522;61;20778;-60
2022/06/12 04:27:50;0.00;0.00;0.62;0.00;0.00;0.62;6.40;3.17;;;27.40;28.50;;;;;;2261402;61;20486;-58
2022/06/12 04:30:38;0.00;0.00;0.62;0.00;0.00;0.62;7.33;3.10;;;27.40;28.50;;;;;;2259481;61;20443;-60
2022/06/12 04:33:42;0.00;0.00;0.62;0.00;0.00;0.62;5.67;2.90;;;27.40;28.60;;;;;;2260376;61;20547;-64
2022/06/12 04:36:28;0.00;0.00;0.62;0.00;0.00;0.62;5.67;3.00;;;27.40;28.70;;;;;;2259893;61;20357;-61
2022/06/12 04:39:15;0.00;0.00;0.62;0.00;0.00;0.62;5.70;2.73;;;27.40;28.70;;;;;;2257329;61;20424;-61
2022/06/12 04:42:01;0.00;0.00;0.62;0.00;0.00;0.62;4.90;2.77;;;27.30;28.70;;;;;;2260414;61;20408;-61
2022/06/12 04:44:47;0.00;0.00;0.62;0.00;0.00;0.62;3.93;2.93;;;27.30;28.80;;;;;;2259528;61;20799;-60
2022/06/12 04:47:32;0.00;0.00;0.62;0.00;0.00;0.62;7.13;3.00;;;27.30;28.80;;;;;;2259527;61;20424;-61
2022/06/12 04:50:17;0.00;0.00;0.62;0.00;0.00;0.62;5.40;3.50;;;27.30;28.90;;;;;;2257064;61;20777;-60
2022/06/12 04:53:04;0.00;0.00;0.62;0.00;0.00;0.62;5.27;2.73;;;27.20;28.80;;;;;;2259270;61;20664;-60
2022/06/12 04:55:49;0.00;0.00;0.62;0.00;0.00;0.62;4.37;2.40;;;27.20;28.80;;;;;;2259940;61;20373;-60
2022/06/12 04:58:34;0.00;0.00;0.62;0.00;0.00;0.62;6.13;3.53;;;27.10;28.70;;;;;;2259837;61;20416;-61
2022/06/12 05:01:21;0.00;0.00;0.62;0.00;0.00;0.62;8.10;3.33;;;27.10;28.70;;;;;;2259107;61;20386;-61
2022/06/12 05:04:06;0.00;0.00;0.62;0.00;0.00;0.62;8.00;2.83;;;27.00;28.80;;;;;;2259997;61;20355;-60
2022/06/12 05:06:52;0.00;0.00;0.62;0.00;0.00;0.62;6.63;2.87;;;27.00;28.80;;;;;;2259649;61;20361;-61
2022/06/12 05:09:42;0.00;0.00;0.62;0.00;0.00;0.62;7.57;3.70;;;26.90;28.90;;;;;;2259703;61;20912;-61
2022/06/12 05:12:27;0.00;0.00;0.62;0.00;0.00;0.62;8.40;3.80;;;26.90;28.90;;;;;;2260107;61;20755;-61
2022/06/12 05:15:14;0.00;0.00;0.62;0.00;0.00;0.62;6.40;3.37;;;26.90;28.90;;;;;;2258788;61;20404;-60
2022/06/12 05:17:59;0.00;0.00;0.62;0.00;0.00;0.62;5.00;2.97;;;26.80;28.90;;;;;;2259972;61;20769;-57
2022/06/12 05:20:45;0.00;0.00;0.62;0.00;0.00;0.62;5.90;2.80;;;26.80;29.00;;;;;;2259673;61;20368;-60
2022/06/12 05:23:30;0.00;0.00;0.62;0.00;0.00;0.62;6.97;3.30;;;26.70;29.00;;;;;;2257558;61;20893;-57
2022/06/12 05:26:18;0.00;0.00;0.62;0.00;0.00;0.62;5.63;2.90;;;26.70;29.10;;;;;;2264382;61;20380;-59
2022/06/12 05:29:07;0.00;0.00;0.62;0.00;0.00;0.62;4.80;2.73;;;26.70;29.20;;;;;;2264166;61;20937;-59
2022/06/12 05:31:53;0.00;0.00;0.62;0.00;0.00;0.62;7.47;2.83;;;26.60;29.20;;;;;;2260501;61;20426;-57
2022/06/12 05:34:38;0.00;0.00;0.62;0.00;0.00;0.62;7.03;2.73;;;26.70;29.30;;;;;;2261512;61;20942;-60
2022/06/12 05:37:23;0.00;0.00;0.62;0.00;0.00;0.62;7.60;3.20;;;26.60;29.30;;;;;;2263675;61;20704;-59
2022/06/12 05:40:12;0.00;0.00;0.62;0.00;0.00;0.62;7.43;4.13;;;26.60;29.30;;;;;;2264128;61;20880;-61
2022/06/12 05:42:58;0.00;0.00;0.62;0.00;0.00;0.62;7.73;3.80;;;26.60;29.30;;;;;;2264359;61;20921;-60
2022/06/12 05:45:44;0.00;0.00;0.62;0.00;0.00;0.62;6.50;3.27;;;26.60;29.40;;;;;;2263699;61;20364;-59
2022/06/12 05:48:29;0.00;0.00;0.62;0.00;0.00;0.62;6.97;3.37;;;26.60;29.40;;;;;;2261220;61;20454;-59
2022/06/12 05:51:17;0.00;0.00;0.62;0.00;0.00;0.62;10.57;3.60;;;26.60;29.40;;;;;;2258204;61;20886;-59
2022/06/12 05:54:03;0.00;0.00;0.62;0.00;0.00;0.62;8.17;3.20;;;26.50;29.40;;;;;;2263511;61;20365;-61
2022/06/12 05:56:48;0.00;0.00;0.62;0.00;0.00;0.62;5.20;3.37;;;26.50;30.00;;;;;;2264541;61;20438;-56
2022/06/12 05:59:34;0.00;0.00;0.62;0.00;0.00;0.62;6.20;2.93;;;26.50;29.60;;;;;;2263551;61;20385;-61
2022/06/12 06:02:19;0.00;0.00;0.62;0.00;0.00;0.62;10.40;3.40;;;26.40;29.60;;;;;;2261252;61;20900;-60
2022/06/12 06:05:06;0.00;0.00;0.62;0.00;0.00;0.62;6.77;4.17;;;26.40;29.60;;;;;;2264917;61;20411;-59
2022/06/12 06:07:51;0.00;0.00;0.62;0.00;0.00;0.62;8.90;3.70;;;26.40;29.70;;;;;;2260573;61;20408;-60
2022/06/12 06:10:37;0.00;0.00;0.62;0.00;0.00;0.62;7.93;3.63;;;26.30;29.70;;;;;;2261866;61;20377;-65
2022/06/12 06:13:22;0.00;0.00;0.62;0.00;0.00;0.62;6.53;3.93;;;26.30;29.70;;;;;;2264271;61;20771;-57
2022/06/12 06:16:09;0.00;0.00;0.62;0.00;0.00;0.62;5.27;3.07;;;26.30;29.80;;;;;;2264189;61;20848;-58
2022/06/12 06:18:54;0.00;0.00;0.62;0.00;0.00;0.62;4.60;3.03;;;26.30;29.80;;;;;;2265490;61;20420;-60
2022/06/12 06:21:40;0.00;0.00;0.62;0.00;0.00;0.62;7.57;3.50;;;26.30;29.80;;;;;;2264196;61;20908;-58
2022/06/12 06:24:25;0.00;0.00;0.62;0.00;0.00;0.62;5.53;2.70;;;26.30;29.90;;;;;;2264794;61;20368;-59
2022/06/12 06:27:10;0.00;0.00;0.62;0.00;0.00;0.62;7.30;3.40;;;26.30;29.90;;;;;;2264848;61;20388;-61
2022/06/12 06:29:55;0.00;0.00;0.62;0.00;0.00;0.62;10.37;3.37;;;26.30;29.90;;;;;;2264025;61;20384;-60
2022/06/12 06:32:41;0.00;0.00;0.62;0.00;0.00;0.62;6.90;3.20;;;26.30;29.90;;;;;;2264734;61;20368;-60
2022/06/12 06:35:27;0.00;0.00;0.62;0.00;0.00;0.62;6.53;3.43;;;26.30;29.90;;;;;;2264279;61;20361;-60
2022/06/12 06:38:12;0.00;0.00;0.62;0.00;0.00;0.62;10.47;3.47;;;26.30;29.90;;;;;;2264031;61;20369;-58
2022/06/12 06:40:57;0.00;0.00;0.62;0.00;0.00;0.62;7.60;2.90;;;26.30;29.90;;;;;;2261509;61;20889;-61
2022/06/12 06:47:04;0.00;0.00;0.62;0.00;0.00;0.62;8.20;3.10;;;26.30;30.00;;;;;;2246655;61;20384;-57
2022/06/12 06:49:50;0.00;0.00;0.62;0.00;0.00;0.62;8.03;3.83;;;26.30;30.00;;;;;;2260012;61;20413;-61
2022/06/12 06:52:36;0.00;0.00;0.62;0.00;0.00;0.62;7.23;2.83;;;26.30;30.60;;;;;;2260683;61;20357;-59
2022/06/12 06:55:21;0.00;0.00;0.62;0.00;0.00;0.62;8.30;3.60;;;26.30;30.00;;;;;;2262674;61;20480;-61
2022/06/12 06:58:09;0.00;0.00;0.62;0.00;0.00;0.62;6.00;2.80;;;26.30;30.00;;;;;;2262318;61;20738;-60
2022/06/12 07:00:54;0.00;0.00;0.62;0.00;0.00;0.62;5.63;2.80;;;26.30;30.00;;;;;;2261710;61;20943;-62
2022/06/12 07:03:39;0.00;0.00;0.62;0.00;0.00;0.62;7.10;3.50;;;26.30;30.00;;;;;;2262183;61;20449;-59
2022/06/12 07:06:25;0.00;0.00;0.62;0.00;0.00;0.62;5.50;2.90;;;26.30;29.90;;;;;;2261614;61;20365;-61
2022/06/12 07:09:10;0.00;0.00;0.62;0.00;0.00;0.62;7.17;2.67;;;26.30;29.90;;;;;;2261113;61;20439;-57
2022/06/12 07:11:55;0.00;0.00;0.62;0.00;0.00;0.62;8.27;3.33;;;26.30;29.80;;;;;;2259859;61;20457;-62
2022/06/12 07:14:40;0.00;0.00;0.62;0.00;0.00;0.62;8.77;3.17;;;26.30;29.80;;;;;;2260048;61;20365;-61
2022/06/12 07:17:34;0.00;0.00;0.62;0.00;0.00;0.62;7.30;3.67;;;26.30;29.80;;;;;;2260953;61;20954;-58
2022/06/12 07:20:23;0.00;0.00;0.62;0.00;0.00;0.62;4.60;3.00;;;26.30;29.80;;;;;;2259942;61;20392;-59
2022/06/12 07:23:11;0.00;0.00;0.62;0.00;0.00;0.62;4.70;2.60;;;26.40;29.80;;;;;;2260127;61;20442;-56
2022/06/12 07:26:04;0.00;0.00;0.62;0.00;0.00;0.62;7.90;2.47;;;26.40;30.20;;;;;;2260414;61;20913;-60
2022/06/12 07:28:50;0.00;0.00;0.62;0.00;0.00;0.62;5.30;3.13;;;26.40;29.50;;;;;;2259682;61;20455;-60
2022/06/12 07:31:35;0.00;0.00;0.62;0.00;0.00;0.62;4.47;2.37;;;26.40;29.40;;;;;;2260261;61;20559;-62
2022/06/12 07:34:20;0.00;0.00;0.62;0.00;0.00;0.62;6.40;3.03;;;26.50;29.40;;;;;;2260089;61;20449;-63
2022/06/12 07:37:07;0.00;0.00;0.62;0.00;0.00;0.62;4.60;2.10;;;26.40;29.20;;;;;;2259802;61;20690;-55
2022/06/12 07:39:53;0.00;0.00;0.62;0.00;0.00;0.62;3.93;2.17;;;26.50;29.00;;;;;;2260173;61;20377;-59
2022/06/12 07:42:39;0.00;0.00;0.62;0.00;0.00;0.62;6.33;3.20;;;26.50;28.80;;;;;;2256721;61;20889;-60
2022/06/12 07:45:23;0.00;0.00;0.62;0.00;0.00;0.62;7.40;2.20;;;26.50;28.60;;;;;;2260349;61;20381;-63
2022/06/12 07:48:08;0.00;0.00;0.62;0.00;0.00;0.62;4.60;2.03;;;26.50;28.50;;;;;;2262332;61;20528;-60
2022/06/12 07:50:54;0.00;0.00;0.62;0.00;0.00;0.62;5.57;2.17;;;26.60;28.30;;;;;;2257652;61;20886;-61
2022/06/12 07:53:40;0.00;0.00;0.62;0.00;0.00;0.62;3.73;1.83;;;26.60;28.20;;;;;;2257100;61;20369;-59
2022/06/12 07:56:27;0.00;0.00;0.62;0.00;0.00;0.62;2.27;1.73;;;26.60;28.00;;;;;;2260286;61;20382;-55
2022/06/12 07:59:12;0.00;0.00;0.62;0.00;0.00;0.62;2.90;1.67;;;26.60;27.90;;;;;;2259905;61;20385;-60
2022/06/12 08:01:57;0.00;0.00;0.62;0.00;0.00;0.62;2.87;1.80;;;26.60;27.80;;;;;;2260661;61;20368;-60
2022/06/12 08:04:42;0.00;0.00;0.62;0.00;0.00;0.62;4.77;1.97;;;26.60;27.80;;;;;;2259916;61;20788;-61
2022/06/12 08:07:27;0.00;0.00;0.62;0.00;0.00;0.62;3.90;1.80;;;26.70;27.70;;;;;;2260262;61;20421;-62
2022/06/12 08:10:12;0.00;0.00;0.62;0.00;0.00;0.62;5.27;2.10;;;26.70;27.50;;;;;;2260761;61;20969;-61
2022/06/12 08:13:03;0.00;0.00;0.62;0.00;0.00;0.62;6.93;2.43;;;26.70;27.40;;;;;;2259478;61;20830;-63
2022/06/12 08:15:50;0.00;0.00;0.62;0.00;0.00;0.62;3.47;1.90;;;26.70;27.30;;;;;;2260263;61;20449;-60
2022/06/12 08:18:35;0.00;0.00;0.62;0.00;0.00;0.62;3.50;1.53;;;26.80;27.20;;;;;;2260458;61;20441;-62
2022/06/12 08:21:21;0.00;0.00;0.62;0.00;0.00;0.62;4.67;2.47;;;26.80;27.20;;;;;;2496202;53;20761;-61
2022/06/12 08:24:09;0.00;0.00;0.62;0.00;0.00;0.62;4.43;2.37;;;26.80;27.10;;;;;;2259934;61;20381;-65
2022/06/12 08:26:54;0.00;0.00;0.62;0.00;0.00;0.62;4.50;2.10;;;26.80;27.00;;;;;;2259565;61;20381;-62
2022/06/12 08:29:41;0.00;0.00;0.62;0.00;0.00;0.62;5.67;2.43;;;26.90;26.90;;;;;;2259890;61;20385;-66
2022/06/12 08:32:26;0.00;0.00;0.62;0.00;0.00;0.62;4.27;2.77;;;26.80;26.80;;;;;;2260609;61;20416;-64
2022/06/12 08:35:18;0.00;0.00;0.62;0.00;0.00;0.62;3.50;1.70;;;26.80;26.80;;;;;;2259214;61;20822;-62
2022/06/12 08:38:04;0.00;0.00;0.62;0.00;0.00;0.62;3.70;1.80;;;26.90;26.90;;;;;;2259338;61;20456;-61
2022/06/12 08:40:57;0.00;0.00;0.62;0.00;0.00;0.62;4.20;1.90;;;26.90;26.80;;;;;;2485739;53;20902;-61
2022/06/12 08:43:50;0.00;0.00;0.62;0.00;0.00;0.62;4.03;1.90;;;26.90;26.60;;;;;;2255491;61;20468;-61
2022/06/12 08:46:45;0.00;0.00;0.62;0.00;0.00;0.62;3.10;1.77;;;26.90;26.50;;;;;;2256397;61;20454;-58
2022/06/12 08:49:41;0.00;0.00;0.62;0.00;0.00;0.62;3.10;1.80;;;26.90;26.50;;;;;;2260385;61;20432;-63
2022/06/12 08:52:31;0.00;0.00;0.62;0.00;0.00;0.62;3.80;1.50;;;26.90;26.60;;;;;;2262037;61;20357;-61
2022/06/12 08:55:25;0.00;0.00;0.62;0.00;0.00;0.62;4.07;2.13;;;27.00;26.70;;;;;;2260252;61;20777;-66
2022/06/12 08:58:17;0.00;0.00;0.62;0.00;0.00;0.62;3.87;2.17;;;27.00;26.60;;;;;;2260508;61;20772;-57
2022/06/12 09:01:02;0.00;0.00;0.62;0.00;0.00;0.62;6.03;1.70;;;27.00;26.70;;;;;;2260745;61;20361;-62
2022/06/12 09:03:53;0.00;0.00;0.62;0.00;0.00;0.62;2.63;1.73;;;27.00;26.70;;;;;;2260473;61;20361;-62
2022/06/12 09:06:45;0.00;0.00;0.62;0.00;0.00;0.62;6.50;2.17;;;27.00;26.80;;;;;;2260082;61;20369;-59
2022/06/12 09:09:38;0.00;0.00;0.62;0.00;0.00;0.62;3.87;1.87;;;27.00;26.80;;;;;;2260201;61;20444;-63
2022/06/12 09:12:34;0.00;0.00;0.62;0.00;0.00;0.62;5.30;2.10;;;27.00;26.80;;;;;;2259075;61;20357;-63
2022/06/12 09:15:31;0.00;0.00;0.62;0.00;0.00;0.62;6.00;1.83;;;27.00;26.70;;;;;;2256958;61;20392;-63
2022/06/12 09:18:28;0.00;0.00;0.62;0.00;0.00;0.62;3.10;1.50;;;27.00;26.70;;;;;;2259992;61;20360;-64
2022/06/12 09:21:23;0.00;0.00;0.62;0.00;0.00;0.62;9.67;2.50;;;27.10;26.80;;;;;;2259936;61;20924;-61
2022/06/12 09:24:23;0.00;0.00;0.62;0.00;0.00;0.62;5.63;1.80;;;27.10;26.70;;;;;;2260225;61;20365;-61
2022/06/12 09:27:29;0.00;0.00;0.62;0.00;0.00;0.62;6.33;3.17;;;27.10;26.60;;;;;;2256706;61;20376;-61
2022/06/12 09:30:20;0.00;0.00;0.62;0.00;0.00;0.62;3.77;1.53;;;27.10;26.40;;;;;;2258596;61;20459;-60
2022/06/12 09:33:18;0.00;0.00;0.62;0.00;0.00;0.62;4.07;2.30;;;27.20;26.20;;;;;;2256036;61;20410;-62
2022/06/12 09:36:19;0.00;0.00;0.62;0.00;0.00;0.62;4.63;2.37;;;27.20;25.90;;;;;;2258114;61;20803;-62
2022/06/12 09:39:19;0.00;0.00;0.62;0.00;0.00;0.62;3.73;2.03;;;27.20;26.10;;;;;;2258651;61;20994;-62
2022/06/12 09:42:18;0.00;0.00;0.62;0.00;0.00;0.62;2.80;2.00;;;27.20;26.20;;;;;;2256201;61;20368;-63
2022/06/12 09:45:14;0.00;0.00;0.62;0.00;0.00;0.62;5.47;2.30;;;27.20;26.30;;;;;;2253032;61;20909;-59
2022/06/12 09:48:20;0.00;0.00;0.62;0.00;0.00;0.62;3.83;1.80;;;27.20;26.30;;;;;;2256181;61;20490;-61
2022/06/12 09:51:16;0.00;0.00;0.62;0.00;0.00;0.62;3.40;1.97;;;27.20;26.20;;;;;;2256229;61;20358;-58
2022/06/12 09:54:20;0.00;0.00;0.62;0.00;0.00;0.62;4.67;1.80;;;27.20;26.30;;;;;;2256837;61;20417;-62
2022/06/12 09:57:13;0.00;0.00;0.62;0.00;0.00;0.62;4.63;2.57;;;27.30;26.10;;;;;;2255447;61;20905;-58
2022/06/12 10:00:05;0.00;0.00;0.62;0.00;0.00;0.62;4.87;2.10;;;27.30;26.00;;;;;;2256605;61;20541;-61
2022/06/12 10:03:11;0.00;0.00;0.62;0.00;0.00;0.62;3.73;2.13;;;27.30;25.90;;;;;;2256072;61;20358;-61
2022/06/12 10:06:02;0.00;0.00;0.62;0.00;0.00;0.62;3.70;1.90;;;27.30;25.90;;;;;;2256943;61;20454;-57
2022/06/12 10:08:55;0.00;0.00;0.62;0.00;0.00;0.62;4.30;2.50;;;27.30;25.90;;;;;;2253600;61;20393;-57
2022/06/12 10:11:48;0.00;0.00;0.62;0.00;0.00;0.62;5.70;2.50;;;27.30;26.00;;;;;;2252412;61;20413;-61
2022/06/12 10:14:40;0.00;0.00;0.62;0.00;0.00;0.62;5.10;2.00;;;27.30;25.80;;;;;;2256615;61;20362;-58
2022/06/12 10:17:32;0.00;0.00;0.62;0.00;0.00;0.62;7.93;2.67;;;27.40;25.70;;;;;;2253344;61;20827;-59
2022/06/12 10:20:23;0.00;0.00;0.62;0.00;0.00;0.62;10.10;2.00;;;27.40;25.60;;;;;;2253097;61;20381;-61
2022/06/12 10:23:10;0.00;0.00;0.62;0.00;0.00;0.62;3.40;1.90;;;27.40;25.40;;;;;;2253875;61;20902;-57
2022/06/12 10:25:59;0.00;0.00;0.62;0.00;0.00;0.62;4.10;2.50;;;27.40;25.40;;;;;;2252076;61;20361;-60
2022/06/12 10:28:59;0.00;0.00;0.62;0.00;0.00;0.62;5.00;2.17;;;27.40;25.30;;;;;;2255062;61;20470;-63
2022/06/12 10:31:55;0.00;0.00;0.62;0.00;0.00;0.62;4.20;2.30;;;27.40;25.30;;;;;;2256136;61;20789;-59
2022/06/12 10:34:40;0.00;0.00;0.62;0.00;0.00;0.62;5.07;2.27;;;27.40;25.30;;;;;;2257151;61;20368;-53
2022/06/12 10:37:51;0.00;0.00;0.62;0.00;0.00;0.62;3.40;1.57;;;27.40;25.40;;;;;;2261432;61;20407;-59
2022/06/12 10:40:36;0.00;0.00;0.62;0.00;0.00;0.62;4.90;1.80;;;27.40;25.30;;;;;;2260847;61;20439;-61
2022/06/12 10:43:52;0.00;0.00;0.62;0.00;0.00;0.62;2.40;1.50;;;27.40;24.30;;;;;;2260736;61;20897;-58
2022/06/12 10:46:38;0.00;0.00;0.62;0.00;0.00;0.62;4.10;1.77;;;27.40;24.40;;;;;;2261054;61;20364;-60
2022/06/12 10:49:24;0.00;0.00;0.62;0.00;0.00;0.62;4.07;1.50;;;27.40;24.40;;;;;;2258291;61;20439;-60
2022/06/12 10:52:18;0.00;0.00;0.62;0.00;0.00;0.62;2.90;1.57;;;27.40;24.60;;;;;;2261514;61;20368;-61
2022/06/12 10:55:11;0.00;0.00;0.62;0.00;0.00;0.62;3.17;1.73;;;27.40;24.80;;;;;;2261340;61;20904;-61
2022/06/12 10:58:04;0.00;0.00;0.62;0.00;0.00;0.62;2.07;1.40;;;27.40;24.90;;;;;;2260351;61;20538;-60
2022/06/12 11:00:54;0.00;0.00;0.62;0.00;0.00;0.62;3.63;1.50;;;27.50;25.10;;;;;;2250948;61;20918;-56
2022/06/12 11:04:00;0.00;0.00;0.62;0.00;0.00;0.62;4.60;2.03;;;27.50;25.10;;;;;;2257006;61;20393;-59
2022/06/12 11:06:58;0.00;0.00;0.62;0.00;0.00;0.62;2.53;1.40;;;27.50;25.00;;;;;;2258678;61;20925;-56
2022/06/12 11:10:04;0.00;0.00;0.62;0.00;0.00;0.62;3.10;1.53;;;27.50;25.00;;;;;;2254943;61;20390;-67
2022/06/12 11:13:25;0.00;0.00;0.62;0.00;0.00;0.62;6.70;1.57;;;27.60;25.10;;;;;;2254133;61;20424;-64
2022/06/12 11:16:31;0.00;0.00;0.62;0.00;0.00;0.62;4.57;2.20;;;27.60;25.00;;;;;;2253486;61;20401;-57
2022/06/12 11:20:18;0.00;0.00;0.62;0.00;0.00;0.62;3.40;1.70;;;27.60;25.10;;;;;;2255489;61;20421;-57
2022/06/12 11:23:34;0.00;0.00;0.62;0.00;0.00;0.62;4.53;2.30;;;27.60;24.90;;;;;;2253901;61;20568;-60
2022/06/12 11:26:47;0.00;0.00;0.62;0.00;0.00;0.62;4.90;2.20;;;27.70;24.50;;;;;;2253218;61;20366;-60
2022/06/12 11:29:58;0.00;0.00;0.62;0.00;0.00;0.62;4.73;2.23;;;27.70;24.20;;;;;;2257098;61;20394;-58